BLUO2: Blue River, Blue, OK

                                SHEF ID:       BLUO2     Blue River near Blue, OK
STATION TYPE:
Regulating: Stage = 21.00, Flow = 5001

PRECIP STAGE RIV-FLOW BAT-LOAD
in ft cfs volt
Ccp-Rev Ccp-Rev Ccp-Rev Ccp-Rev
(America/Chicago)
03/14 00:00 0.00 7.07 195 12.89
03/14 01:00 0.00 7.06 193 12.81
03/14 02:00 0.00 7.03 189 12.81
03/14 03:00 0.00 7.00 184 12.81
03/14 04:00 0.00 6.96 178 12.73
03/14 05:00 0.00 6.93 174 12.73
03/14 06:00 0.00 6.91 171 12.73
03/14 07:00 0.00 6.89 168 12.73
03/14 08:00 0.00 6.87 166 12.73
03/14 09:00 0.00 6.86 164 12.81
03/14 10:00 0.00 6.85 163 13.37
03/14 11:00 0.00 6.83 160 13.84
03/14 12:00 0.00 6.80 156 14.16
03/14 13:00 0.00 6.78 153 14.24
03/14 14:00 0.00 6.76 151 14.00
03/14 15:00 0.00 6.76 151 13.53
03/14 16:00 0.00 6.74 148 13.29
03/14 17:00 0.00 6.70 143 13.92
03/14 18:00 0.00 6.71 145 13.76
03/14 19:00 0.00 6.69 142 13.53
03/14 20:00 0.00 6.68 141 13.05
03/14 21:00 0.00 6.68 141 12.97
03/14 22:00 0.00 6.66 138 12.97
03/14 23:00 0.00 6.65 137 12.97
Data processed at Sun 15Mar2026 04:47 GMT

NOTICE: If you are parsing this page

Please convert to using our Data API. Starting early 2026 we will be migrating to: https://water.usace.army.mil with modern pages rendered in JavaScript. When this migration completes you will no longer be able to scrape this page! CWMSDataAPI (CDA)

Timeseries IDs (TSIDs)

TSIDs used from left to right in the data table
BLUE.Precip-Inc.Total.1Hour.1Hour.Ccp-Rev
BLUE.Stage.Inst.1Hour.0.Ccp-Rev
BLUE.Flow.Inst.1Hour.0.Ccp-Rev
BLUE.Volt-Battery Load.Inst.1Hour.0.Ccp-Rev

                            

All information presented herein is the property of the government of the United States of America and may be revised or deleted at any time without prior notice. Dissemination of this information without the expressed written consent of the Public Affairs Office, Tulsa District U.S. Army Corps of Engineers is strictly prohibited. These data are gathered electronically and, as presented, have NOT undergone any form of quality control. These data are NOT guaranteed to be valid or correct.